createdAt,value
2023-03-18T00:01:26.999Z,14.60
2023-03-18T00:03:53.841Z,12.87
2023-03-18T00:06:22.016Z,11.07
2023-03-18T00:08:51.212Z,10.93
2023-03-18T00:11:20.146Z,13.13
2023-03-18T00:13:48.024Z,11.27
2023-03-18T00:16:15.798Z,13.37
2023-03-18T00:18:42.726Z,12.50
2023-03-18T00:21:10.162Z,11.73
2023-03-18T00:23:37.171Z,10.70
2023-03-18T00:26:04.875Z,11.73
2023-03-18T00:28:32.713Z,11.10
2023-03-18T00:31:10.136Z,11.37
2023-03-18T00:33:40.096Z,14.20
2023-03-18T00:36:10.296Z,10.50
2023-03-18T00:38:37.717Z,10.43
2023-03-18T00:41:11.637Z,11.70
2023-03-18T00:43:52.209Z,9.53
2023-03-18T00:46:20.436Z,8.93
2023-03-18T00:48:48.008Z,10.30
2023-03-18T00:51:17.341Z,9.80
2023-03-18T00:53:48.596Z,11.00
2023-03-18T00:56:18.908Z,11.07
2023-03-18T00:58:46.998Z,11.97
2023-03-18T01:01:14.860Z,12.77
2023-03-18T01:03:42.680Z,9.43
2023-03-18T01:06:15.707Z,12.10
2023-03-18T01:08:42.552Z,8.60
2023-03-18T01:11:09.804Z,13.93
2023-03-18T01:13:37.974Z,10.10
2023-03-18T01:16:06.725Z,9.77
2023-03-18T01:18:34.528Z,14.23
2023-03-18T01:21:01.788Z,9.87
2023-03-18T01:23:30.223Z,8.73
2023-03-18T01:25:59.044Z,10.57
2023-03-18T01:28:27.351Z,9.83
2023-03-18T01:30:55.347Z,8.77
2023-03-18T01:33:22.378Z,11.47
2023-03-18T01:36:00.670Z,10.87
2023-03-18T01:38:42.022Z,9.43
2023-03-18T01:41:08.951Z,10.17
2023-03-18T01:43:38.914Z,7.93
2023-03-18T01:46:39.037Z,8.70
2023-03-18T01:49:13.853Z,7.90
2023-03-18T01:51:43.807Z,10.33
2023-03-18T01:54:13.088Z,9.10
2023-03-18T01:56:41.432Z,8.17
2023-03-18T01:59:11.312Z,9.97
2023-03-18T02:02:01.852Z,9.60
2023-03-18T02:04:33.270Z,9.43
2023-03-18T02:09:46.453Z,8.60
2023-03-18T02:12:17.387Z,10.87
2023-03-18T02:14:44.591Z,7.33
2023-03-18T02:17:40.932Z,5.40
2023-03-18T02:20:26.125Z,9.53
2023-03-18T02:23:06.561Z,11.37
2023-03-18T02:25:55.695Z,8.63
2023-03-18T02:28:27.349Z,8.23
2023-03-18T02:30:58.292Z,10.23
2023-03-18T02:33:31.307Z,7.13
2023-03-18T02:36:04.569Z,7.20
2023-03-18T02:38:31.418Z,9.67
2023-03-18T02:40:58.348Z,8.40
2023-03-18T02:43:27.236Z,9.27
2023-03-18T02:46:09.515Z,10.00
2023-03-18T02:48:40.240Z,7.07
2023-03-18T02:51:09.007Z,8.47
2023-03-18T02:53:37.647Z,7.60
2023-03-18T02:56:06.013Z,7.63
2023-03-18T02:58:33.207Z,6.50
2023-03-18T03:01:00.357Z,6.50
2023-03-18T03:03:27.776Z,7.23
2023-03-18T03:05:54.960Z,6.10
2023-03-18T03:08:22.421Z,5.77
2023-03-18T03:10:51.079Z,9.83
2023-03-18T03:13:18.547Z,7.83
2023-03-18T03:15:45.438Z,6.47
2023-03-18T03:18:12.303Z,5.50
2023-03-18T03:20:39.246Z,6.57
2023-03-18T03:23:12.541Z,7.03
2023-03-18T03:25:40.641Z,7.57
2023-03-18T03:28:08.782Z,6.17
2023-03-18T03:30:36.764Z,9.10
2023-03-18T03:33:04.786Z,6.57
2023-03-18T03:35:32.767Z,9.33
2023-03-18T03:37:59.898Z,6.20
2023-03-18T03:40:27.778Z,7.40
2023-03-18T03:42:54.814Z,6.77
2023-03-18T03:45:22.104Z,6.67
2023-03-18T03:47:49.258Z,7.27
2023-03-18T03:50:17.976Z,8.70
2023-03-18T03:52:45.639Z,7.67
2023-03-18T03:55:15.507Z,7.63
2023-03-18T03:57:42.668Z,9.20
2023-03-18T04:00:16.588Z,9.73
2023-03-18T04:02:44.878Z,6.47
2023-03-18T04:05:14.445Z,7.13
2023-03-18T04:07:41.577Z,9.43
2023-03-18T04:10:10.719Z,8.70
2023-03-18T04:12:38.543Z,6.67
2023-03-18T04:15:11.390Z,8.17
2023-03-18T04:17:38.535Z,7.67
2023-03-18T04:20:05.648Z,5.30
2023-03-18T04:22:32.975Z,7.27
2023-03-18T04:25:00.344Z,8.07
2023-03-18T04:27:28.196Z,6.93
2023-03-18T04:29:55.072Z,7.37
2023-03-18T04:32:21.959Z,6.40
2023-03-18T04:34:48.740Z,10.87
2023-03-18T04:37:19.825Z,8.17
2023-03-18T04:39:48.383Z,7.97
2023-03-18T04:42:16.556Z,6.33
2023-03-18T04:44:43.964Z,6.93
2023-03-18T04:47:11.037Z,6.50
2023-03-18T04:49:37.975Z,7.13
2023-03-18T04:52:05.492Z,7.10
2023-03-18T04:54:32.301Z,5.93
2023-03-18T04:56:59.581Z,8.07
2023-03-18T04:59:26.435Z,5.60
2023-03-18T05:16:33.454Z,7.13
2023-03-18T05:19:00.367Z,8.33
2023-03-18T05:21:30.585Z,6.53
2023-03-18T05:23:57.396Z,6.40
2023-03-18T05:26:24.860Z,7.03
2023-03-18T05:28:52.575Z,6.93
2023-03-18T05:31:19.808Z,8.60
2023-03-18T05:33:46.908Z,8.17
2023-03-18T05:36:14.581Z,7.33
2023-03-18T05:38:41.417Z,8.00
2023-03-18T05:41:08.218Z,5.77
2023-03-18T05:43:34.967Z,8.03
2023-03-18T05:46:01.799Z,8.50
2023-03-18T05:48:28.652Z,10.13
2023-03-18T05:50:55.714Z,7.50
2023-03-18T05:53:22.533Z,6.70
2023-03-18T05:55:50.563Z,8.60
2023-03-18T05:58:18.098Z,8.90
2023-03-18T06:00:45.750Z,7.70
2023-03-18T06:03:12.633Z,6.67
2023-03-18T06:05:39.431Z,8.53
2023-03-18T06:08:07.271Z,7.80
2023-03-18T06:10:34.117Z,6.67
2023-03-18T06:13:01.618Z,5.30
2023-03-18T06:15:28.544Z,9.00
2023-03-18T06:17:55.372Z,6.67
2023-03-18T06:20:22.488Z,6.73
2023-03-18T06:22:49.929Z,6.27
2023-03-18T06:25:19.389Z,6.60
2023-03-18T06:27:47.913Z,5.97
2023-03-18T06:30:16.446Z,6.07
2023-03-18T06:32:43.828Z,9.10
2023-03-18T06:35:12.155Z,9.73
2023-03-18T06:37:40.102Z,4.93
2023-03-18T06:40:08.668Z,6.33
2023-03-18T06:42:35.865Z,6.50
2023-03-18T06:45:02.832Z,8.73
2023-03-18T06:47:29.764Z,5.30
2023-03-18T06:49:57.166Z,4.90
2023-03-18T06:52:24.147Z,8.97
2023-03-18T06:54:51.871Z,5.77
2023-03-18T06:57:18.922Z,5.77
2023-03-18T06:59:46.242Z,8.63
2023-03-18T07:02:13.609Z,5.53
2023-03-18T07:04:40.477Z,7.17
2023-03-18T07:07:08.347Z,6.60
2023-03-18T07:09:36.426Z,5.63
2023-03-18T07:12:03.475Z,5.07
2023-03-18T07:14:30.757Z,7.27
2023-03-18T07:16:57.681Z,6.87
2023-03-18T07:19:24.596Z,5.17
2023-03-18T07:21:51.812Z,6.80
2023-03-18T07:24:21.259Z,5.13
2023-03-18T07:26:50.325Z,7.83
2023-03-18T07:29:17.743Z,6.10
2023-03-18T07:31:45.009Z,7.47
2023-03-18T07:34:13.648Z,7.27
2023-03-18T07:36:40.951Z,6.03
2023-03-18T07:39:10.179Z,5.97
2023-03-18T07:41:38.005Z,5.50
2023-03-18T07:44:07.697Z,5.90
2023-03-18T07:46:34.785Z,7.37
2023-03-18T07:49:01.975Z,6.90
2023-03-18T07:51:28.784Z,9.17
2023-03-18T07:53:55.625Z,6.93
2023-03-18T07:56:22.537Z,8.60
2023-03-18T07:58:49.401Z,5.80
2023-03-18T08:01:18.515Z,7.30
2023-03-18T08:03:46.772Z,7.43
2023-03-18T08:06:15.554Z,5.83
2023-03-18T08:08:43.057Z,7.00
2023-03-18T08:11:10.517Z,6.87
2023-03-18T08:13:38.813Z,8.03
2023-03-18T08:16:06.543Z,6.07
2023-03-18T08:18:33.748Z,7.60
2023-03-18T08:21:01.042Z,5.13
2023-03-18T08:23:28.018Z,5.40
2023-03-18T08:25:54.920Z,6.40
2023-03-18T08:28:21.776Z,4.63
2023-03-18T08:30:48.862Z,5.50
2023-03-18T08:33:16.044Z,6.60
2023-03-18T08:35:42.992Z,6.13
2023-03-18T08:38:09.993Z,6.47
2023-03-18T08:40:36.992Z,6.20
2023-03-18T08:43:03.856Z,7.00
2023-03-18T08:45:30.980Z,7.00
2023-03-18T08:47:59.002Z,6.47
2023-03-18T08:50:28.633Z,5.70
2023-03-18T08:52:59.964Z,8.97
2023-03-18T08:55:32.840Z,7.40
2023-03-18T08:58:00.390Z,6.93
2023-03-18T09:00:28.342Z,6.07
2023-03-18T09:02:55.152Z,6.20
2023-03-18T09:05:22.232Z,6.43
2023-03-18T09:07:49.056Z,6.57
2023-03-18T09:10:17.757Z,5.47
2023-03-18T09:12:45.563Z,7.80
2023-03-18T09:15:18.416Z,5.50
2023-03-18T09:17:56.975Z,7.80
2023-03-18T09:20:32.742Z,7.27
2023-03-18T09:23:00.456Z,6.77
2023-03-18T09:25:27.915Z,5.90
2023-03-18T09:27:54.760Z,6.10
2023-03-18T09:30:21.728Z,5.97
2023-03-18T09:32:49.296Z,5.47
2023-03-18T09:35:16.619Z,7.43
2023-03-18T09:37:44.701Z,6.17
2023-03-18T09:40:30.799Z,6.97
2023-03-18T09:43:07.163Z,10.33
2023-03-18T09:45:45.130Z,8.57
2023-03-18T09:48:44.439Z,6.80
2023-03-18T09:51:30.770Z,5.80
2023-03-18T09:54:14.827Z,4.80
2023-03-18T09:56:43.052Z,7.83
2023-03-18T09:59:40.375Z,7.63
2023-03-18T10:02:18.433Z,6.50
2023-03-18T10:04:52.545Z,6.53
2023-03-18T10:07:25.753Z,4.87
2023-03-18T10:09:55.990Z,5.97
2023-03-18T10:16:01.931Z,6.33
2023-03-18T10:18:38.145Z,8.07
2023-03-18T10:21:07.653Z,6.93
2023-03-18T10:24:16.962Z,6.57
2023-03-18T10:27:08.700Z,5.83
2023-03-18T10:29:51.925Z,7.03
2023-03-18T10:32:31.196Z,7.10
2023-03-18T10:35:27.150Z,8.17
2023-03-18T10:38:10.874Z,7.03
2023-03-18T10:40:41.383Z,5.77
2023-03-18T10:43:26.748Z,5.47
2023-03-18T10:46:04.213Z,9.57
2023-03-18T10:48:38.371Z,6.73
2023-03-18T10:51:18.606Z,6.53
2023-03-18T10:54:02.578Z,6.50
2023-03-18T10:56:31.121Z,6.90
2023-03-18T10:58:58.926Z,6.90
2023-03-18T11:01:29.100Z,8.33
2023-03-18T11:04:06.697Z,6.73
2023-03-18T11:06:45.299Z,6.60
2023-03-18T11:09:18.705Z,5.50
2023-03-18T11:11:50.396Z,8.85
2023-03-18T11:14:22.987Z,5.57
2023-03-18T11:17:01.074Z,5.70
2023-03-18T11:19:32.542Z,6.87
2023-03-18T11:22:19.194Z,11.73
2023-03-18T11:24:46.747Z,6.85
2023-03-18T11:27:17.320Z,7.47
2023-03-18T11:29:54.347Z,8.67
2023-03-18T11:32:25.649Z,9.07
2023-03-18T11:34:58.565Z,6.60
2023-03-18T11:37:33.806Z,7.73
2023-03-18T11:40:29.855Z,6.30
2023-03-18T11:43:21.740Z,7.53
2023-03-18T11:46:04.750Z,5.43
2023-03-18T11:48:39.127Z,7.07
2023-03-18T11:51:27.285Z,6.27
2023-03-18T11:54:21.527Z,5.90
2023-03-18T11:57:20.331Z,6.37
2023-03-18T11:59:49.975Z,8.50
2023-03-18T12:02:47.676Z,7.47
2023-03-18T12:05:30.813Z,6.53
2023-03-18T12:08:18.137Z,8.73
2023-03-18T12:10:51.759Z,4.73
2023-03-18T12:13:32.749Z,7.50
2023-03-18T12:16:24.075Z,5.43
2023-03-18T12:18:54.350Z,7.17
2023-03-18T12:21:46.020Z,6.27
2023-03-18T12:24:27.739Z,6.33
2023-03-18T12:27:13.701Z,6.33
2023-03-18T12:30:19.599Z,6.10
2023-03-18T12:33:03.726Z,5.40
2023-03-18T12:36:07.814Z,7.25
2023-03-18T12:39:22.922Z,5.07
2023-03-18T12:42:10.665Z,6.50
2023-03-18T12:44:58.717Z,7.20
2023-03-18T12:47:52.369Z,6.57
2023-03-18T12:50:29.369Z,8.40
2023-03-18T12:53:02.590Z,7.50
2023-03-18T12:55:42.201Z,5.60
2023-03-18T12:58:19.602Z,7.00
2023-03-18T13:01:07.588Z,6.67
2023-03-18T13:03:40.227Z,11.17
2023-03-18T13:09:39.572Z,6.37
2023-03-18T13:12:14.781Z,7.70
2023-03-18T13:15:10.360Z,5.73
2023-03-18T13:17:42.265Z,4.83
2023-03-18T13:20:22.798Z,6.13
2023-03-18T13:22:56.345Z,6.03
2023-03-18T13:25:47.736Z,6.67
2023-03-18T13:28:38.190Z,9.30
2023-03-18T13:31:34.582Z,8.32
2023-03-18T13:34:32.661Z,7.47
2023-03-18T13:37:18.991Z,4.57
2023-03-18T13:40:19.207Z,6.53
2023-03-18T13:42:49.389Z,6.78
2023-03-18T13:45:25.384Z,6.15
2023-03-18T13:48:18.405Z,5.90
2023-03-18T13:50:47.718Z,8.10
2023-03-18T13:53:38.237Z,6.88
2023-03-18T13:56:07.110Z,7.03
2023-03-18T13:58:44.765Z,7.63
2023-03-18T14:01:17.103Z,7.07
2023-03-18T14:03:44.678Z,5.47
2023-03-18T14:06:30.453Z,6.97
2023-03-18T14:08:57.522Z,7.23
2023-03-18T14:11:24.399Z,5.87
2023-03-18T14:13:54.050Z,6.18
2023-03-18T14:16:34.511Z,8.20
2023-03-18T14:19:03.349Z,4.97
2023-03-18T14:21:33.777Z,6.05
2023-03-18T14:24:28.805Z,7.65
2023-03-18T14:26:58.646Z,7.00
2023-03-18T14:29:49.571Z,7.43
2023-03-18T14:32:34.904Z,8.77
2023-03-18T14:35:30.829Z,8.50
2023-03-18T14:40:41.732Z,8.97
2023-03-18T14:43:16.908Z,7.20
2023-03-18T14:45:46.068Z,7.37
2023-03-18T14:48:19.943Z,8.07
2023-03-18T14:50:59.670Z,7.90
2023-03-18T14:53:34.537Z,7.47
2023-03-18T14:56:04.209Z,7.43
2023-03-18T14:58:33.929Z,7.53
2023-03-18T15:01:09.247Z,7.30
2023-03-18T15:03:40.590Z,6.50
2023-03-18T15:06:08.599Z,9.63
2023-03-18T15:08:47.759Z,6.80
2023-03-18T15:11:16.613Z,6.93
2023-03-18T15:13:44.883Z,7.60
2023-03-18T15:16:14.388Z,7.03
2023-03-18T15:18:41.601Z,7.80
2023-03-18T15:21:32.430Z,7.93
2023-03-18T15:24:07.826Z,11.43
2023-03-18T15:26:38.674Z,7.97
2023-03-18T15:29:33.184Z,7.53
2023-03-18T15:32:28.605Z,9.90
2023-03-18T15:35:19.772Z,7.70
2023-03-18T15:37:48.372Z,9.23
2023-03-18T15:40:43.453Z,8.17
2023-03-18T15:43:17.530Z,8.77
2023-03-18T15:45:47.528Z,9.23
2023-03-18T15:48:30.283Z,7.80
2023-03-18T15:55:37.567Z,7.10
2023-03-18T15:58:25.982Z,8.47
2023-03-18T16:00:56.667Z,7.97
2023-03-18T16:03:35.117Z,9.63
2023-03-18T16:06:04.048Z,9.03
2023-03-18T16:08:32.880Z,9.43
2023-03-18T16:11:04.163Z,9.17
2023-03-18T16:13:34.550Z,10.07
2023-03-18T16:16:02.556Z,9.27
2023-03-18T16:18:30.352Z,8.80
2023-03-18T16:20:57.484Z,9.93
2023-03-18T16:23:24.416Z,8.27
2023-03-18T16:25:53.432Z,8.23
2023-03-18T16:28:23.970Z,8.97
2023-03-18T16:30:53.449Z,8.80
2023-03-18T16:33:21.669Z,10.27
2023-03-18T16:35:59.104Z,8.77
2023-03-18T16:38:27.155Z,9.87
2023-03-18T16:40:55.496Z,10.43
2023-03-18T16:43:28.247Z,8.97
2023-03-18T16:46:04.067Z,9.17
2023-03-18T16:48:31.321Z,11.23
2023-03-18T16:51:00.447Z,10.10
2023-03-18T16:53:30.496Z,12.00
2023-03-18T16:56:03.562Z,12.43
2023-03-18T16:58:34.891Z,9.83
2023-03-18T17:01:04.853Z,11.47
2023-03-18T17:03:33.072Z,11.53
2023-03-18T17:06:00.299Z,8.20
2023-03-18T17:08:27.539Z,10.57
2023-03-18T17:11:03.458Z,10.53
2023-03-18T17:13:33.320Z,12.33
2023-03-18T17:16:00.490Z,10.20
2023-03-18T17:18:33.681Z,9.77
2023-03-18T17:26:48.327Z,13.07
2023-03-18T17:29:31.435Z,11.77
2023-03-18T17:32:04.032Z,13.83
2023-03-18T17:34:48.482Z,15.10
2023-03-18T17:37:34.219Z,14.23
2023-03-18T17:40:01.221Z,12.53
2023-03-18T17:42:37.083Z,15.43
2023-03-18T17:45:39.536Z,15.53
2023-03-18T17:48:20.365Z,14.10
2023-03-18T17:50:53.399Z,14.17
2023-03-18T17:53:22.804Z,14.90
2023-03-18T17:55:50.047Z,14.67
2023-03-18T17:58:18.818Z,15.97
2023-03-18T18:00:47.075Z,15.43
2023-03-18T18:03:34.936Z,16.83
2023-03-18T18:11:48.589Z,20.73
2023-03-18T18:14:19.713Z,16.80
2023-03-18T18:16:48.133Z,15.37
2023-03-18T18:19:16.536Z,14.13
2023-03-18T18:21:45.039Z,16.10
2023-03-18T18:24:23.853Z,16.73
2023-03-18T18:26:51.105Z,16.17
2023-03-18T18:29:23.621Z,15.67
2023-03-18T18:31:50.950Z,17.60
2023-03-18T18:38:28.494Z,18.47
2023-03-18T18:40:57.464Z,22.60
2023-03-18T18:43:25.683Z,25.00
2023-03-18T18:45:54.616Z,21.87
2023-03-18T18:48:31.975Z,22.23
2023-03-18T18:51:00.013Z,20.83
2023-03-18T18:53:33.979Z,21.00
2023-03-18T18:56:06.530Z,19.57
2023-03-18T18:58:35.300Z,20.93
2023-03-18T19:01:08.421Z,21.87
2023-03-18T19:03:54.206Z,23.73
2023-03-18T19:06:49.783Z,19.83
2023-03-18T19:09:21.976Z,19.07
2023-03-18T19:11:50.225Z,21.13
2023-03-18T19:14:28.185Z,22.73
2023-03-18T19:17:00.979Z,23.03
2023-03-18T19:19:31.490Z,22.70
2023-03-18T19:21:58.939Z,20.27
2023-03-18T19:24:27.572Z,19.20
2023-03-18T19:27:07.131Z,23.00
2023-03-18T19:29:34.047Z,20.50
2023-03-18T19:32:01.729Z,21.20
2023-03-18T19:34:30.994Z,22.53
2023-03-18T19:36:58.057Z,24.83
2023-03-18T19:39:26.613Z,21.10
2023-03-18T19:41:53.735Z,23.27
2023-03-18T19:44:23.362Z,21.47
2023-03-18T19:46:52.937Z,21.80
2023-03-18T19:49:24.756Z,19.33
2023-03-18T19:51:52.368Z,22.07
2023-03-18T19:54:27.645Z,24.73
2023-03-18T19:57:02.237Z,19.27
2023-03-18T19:59:37.423Z,21.13
2023-03-18T20:02:21.160Z,18.30
2023-03-18T20:04:49.696Z,20.23
2023-03-18T20:07:20.661Z,20.50
2023-03-18T20:09:52.578Z,23.17
2023-03-18T20:12:33.756Z,19.90
2023-03-18T20:15:04.629Z,19.97
2023-03-18T20:17:38.955Z,20.60
2023-03-18T20:20:37.506Z,22.27
2023-03-18T20:23:13.643Z,24.30
2023-03-18T20:25:46.040Z,20.53
2023-03-18T20:28:17.365Z,18.20
2023-03-18T20:31:00.305Z,17.20
2023-03-18T20:33:32.386Z,19.97
2023-03-18T20:36:06.458Z,19.40
2023-03-18T20:38:44.122Z,19.03
2023-03-18T20:41:19.604Z,21.87
2023-03-18T20:43:50.636Z,20.20
2023-03-18T20:46:17.950Z,19.07
2023-03-18T20:48:45.081Z,19.50
2023-03-18T20:51:33.428Z,22.40
2023-03-18T20:54:00.736Z,21.20
2023-03-18T20:56:32.418Z,20.77
2023-03-18T20:58:59.528Z,19.73
2023-03-18T21:01:26.477Z,20.37
2023-03-18T21:03:54.064Z,22.03
2023-03-18T21:06:21.809Z,18.23
2023-03-18T21:08:48.935Z,22.07
2023-03-18T21:11:33.916Z,22.57
2023-03-18T21:14:01.000Z,22.97
2023-03-18T21:16:28.073Z,21.83
2023-03-18T21:18:54.931Z,25.10
2023-03-18T21:21:25.708Z,21.30
2023-03-18T21:23:54.136Z,23.47
2023-03-18T21:26:22.580Z,21.33
2023-03-18T21:28:50.907Z,22.60
2023-03-18T21:31:25.428Z,25.23
2023-03-18T21:33:53.509Z,22.10
2023-03-18T21:36:21.791Z,24.37
2023-03-18T21:38:49.723Z,22.87
2023-03-18T21:41:22.359Z,23.67
2023-03-18T21:43:50.036Z,22.10
2023-03-18T21:46:22.640Z,20.63
2023-03-18T21:48:51.241Z,27.77
2023-03-18T21:51:39.035Z,24.90
2023-03-18T21:54:16.685Z,21.70
2023-03-18T21:56:43.890Z,25.37
2023-03-18T21:59:10.689Z,25.00
2023-03-18T22:01:37.596Z,21.90
2023-03-18T22:04:04.456Z,25.53
2023-03-18T22:06:31.355Z,21.87
2023-03-18T22:08:58.189Z,21.23
2023-03-18T22:11:25.315Z,20.40
2023-03-18T22:13:52.296Z,21.53
2023-03-18T22:16:19.197Z,21.53
2023-03-18T22:18:47.424Z,22.53
2023-03-18T22:21:25.428Z,23.33
2023-03-18T22:23:53.846Z,20.70
2023-03-18T22:26:23.990Z,20.80
2023-03-18T22:28:51.588Z,22.13
2023-03-18T22:31:25.694Z,24.07
2023-03-18T22:33:52.895Z,22.03
2023-03-18T22:36:21.766Z,22.57
2023-03-18T22:38:49.594Z,21.50
2023-03-18T22:41:29.257Z,20.93
2023-03-18T22:43:57.927Z,20.93
2023-03-18T22:46:24.753Z,23.73
2023-03-18T22:48:51.578Z,23.93
2023-03-18T22:51:28.169Z,23.13
2023-03-18T22:53:55.745Z,24.37
2023-03-18T22:56:23.287Z,19.97
2023-03-18T22:58:50.776Z,22.93
2023-03-18T23:01:20.123Z,22.37
2023-03-18T23:03:47.583Z,23.70
2023-03-18T23:06:18.367Z,21.97
2023-03-18T23:08:45.733Z,25.10
2023-03-18T23:11:13.493Z,23.97
2023-03-18T23:13:42.698Z,26.57
2023-03-18T23:16:14.982Z,23.90
2023-03-18T23:18:43.096Z,22.53
2023-03-18T23:21:19.477Z,22.70
2023-03-18T23:23:46.908Z,22.60
2023-03-18T23:26:13.932Z,24.23
2023-03-18T23:28:44.730Z,22.47
2023-03-18T23:31:12.779Z,24.03
2023-03-18T23:33:39.838Z,22.03
2023-03-18T23:36:07.540Z,25.60
2023-03-18T23:38:35.407Z,23.20
2023-03-18T23:41:02.452Z,25.67
2023-03-18T23:43:29.339Z,25.53
2023-03-18T23:45:56.423Z,24.43
2023-03-18T23:48:23.337Z,23.30
2023-03-18T23:50:50.255Z,25.60
2023-03-18T23:53:17.253Z,27.53
2023-03-18T23:55:44.234Z,22.63
2023-03-18T23:58:11.130Z,20.53
